Main page
METAR-TAF:

METAR-TAF

Airports :

Jyväskylä Airport

Jyväskylä, Finland

latitude: 62-24N, longitude: 025-41E, elevation: 141 m

Current weather observation

The report was made 33 minutes ago, at 11:50 UTC
Wind 6 kt from the North, varying between North/Northwest and Northeast
Temperature -3°C
Humidity 46%
Pressure 1000 hPa
Visibility 10 km or more
no clouds below 1500 m and no cumulonimbus

METAR: EFJY 281150Z 35006KT 330V040 CAVOK M03/M13 Q1000

Time: 14:23 (12:23 UTC)

Forecast

The report was made 59 minutes ago, at 11:24 UTC
Forecast valid from 28 at 12 UTC to 29 at 12 UTC
Wind 6 kt from the North
Visibility 10 km or more
no clouds below 1500 m and no cumulonimbus

TAF: EFJY 281124Z 2812/2912 36006KT CAVOK

Weather observations and forecasts of more than 4000 airports (METAR and TAF reports).

The available stations are represented by yellow and red dots on the map.

Hover mouse over dot to see the name of the station.

Then click to see weather observations and forecasts.

To change the map : click on the green buttons with a black cross to zoom in, on the green button with a dash to zoom out, or on the green arrows for adjacent maps.


METAR-TAF: